sensor_id;sensor_type;location;lat;lon;timestamp;pressure;altitude;pressure_sealevel;temperature;humidity
71145;BME280;58812;47.698;17.726;2023-04-23T00:01:57;99893.59;;;9.58;80.26
71145;BME280;58812;47.698;17.726;2023-04-23T00:04:25;99892.50;;;9.51;80.72
71145;BME280;58812;47.698;17.726;2023-04-23T00:06:51;99893.09;;;9.45;81.07
71145;BME280;58812;47.698;17.726;2023-04-23T00:09:17;99888.88;;;9.42;80.97
71145;BME280;58812;47.698;17.726;2023-04-23T00:11:43;99892.50;;;9.23;83.69
71145;BME280;58812;47.698;17.726;2023-04-23T00:14:09;99892.09;;;9.18;83.35
71145;BME280;58812;47.698;17.726;2023-04-23T00:16:35;99894.63;;;9.20;83.20
71145;BME280;58812;47.698;17.726;2023-04-23T00:19:01;99888.47;;;9.19;82.99
71145;BME280;58812;47.698;17.726;2023-04-23T00:21:26;99884.38;;;9.15;83.22
71145;BME280;58812;47.698;17.726;2023-04-23T00:23:52;99885.13;;;9.07;83.13
71145;BME280;58812;47.698;17.726;2023-04-23T00:26:18;99887.66;;;8.99;84.21
71145;BME280;58812;47.698;17.726;2023-04-23T00:28:43;99890.19;;;9.01;84.30
71145;BME280;58812;47.698;17.726;2023-04-23T00:31:08;99883.31;;;8.98;84.28
71145;BME280;58812;47.698;17.726;2023-04-23T00:33:34;99891.06;;;8.92;84.98
71145;BME280;58812;47.698;17.726;2023-04-23T00:35:59;99886.19;;;8.77;86.03
71145;BME280;58812;47.698;17.726;2023-04-23T00:38:25;99883.38;;;8.79;85.25
71145;BME280;58812;47.698;17.726;2023-04-23T00:40:51;99877.22;;;8.78;85.24
71145;BME280;58812;47.698;17.726;2023-04-23T00:43:16;99871.59;;;8.72;85.55
71145;BME280;58812;47.698;17.726;2023-04-23T00:45:43;99874.41;;;8.70;85.53
71145;BME280;58812;47.698;17.726;2023-04-23T00:48:10;99872.56;;;8.71;86.07
71145;BME280;58812;47.698;17.726;2023-04-23T00:50:36;99874.69;;;8.67;86.26
71145;BME280;58812;47.698;17.726;2023-04-23T00:53:01;99867.12;;;8.63;86.10
71145;BME280;58812;47.698;17.726;2023-04-23T00:55:27;99872.31;;;8.64;86.87
71145;BME280;58812;47.698;17.726;2023-04-23T00:57:53;99865.59;;;8.60;86.08
71145;BME280;58812;47.698;17.726;2023-04-23T01:00:19;99871.47;;;8.64;86.51
71145;BME280;58812;47.698;17.726;2023-04-23T01:02:46;99874.44;;;8.61;86.33
71145;BME280;58812;47.698;17.726;2023-04-23T01:05:13;99867.97;;;8.63;86.48
71145;BME280;58812;47.698;17.726;2023-04-23T01:07:41;99864.59;;;8.61;86.51
71145;BME280;58812;47.698;17.726;2023-04-23T01:10:08;99865.59;;;8.60;86.44
71145;BME280;58812;47.698;17.726;2023-04-23T01:12:35;99864.72;;;8.60;85.94
71145;BME280;58812;47.698;17.726;2023-04-23T01:15:01;99861.94;;;8.61;86.30
71145;BME280;58812;47.698;17.726;2023-04-23T01:17:27;99860.94;;;8.62;85.59
71145;BME280;58812;47.698;17.726;2023-04-23T01:19:52;99857.59;;;8.60;85.55
71145;BME280;58812;47.698;17.726;2023-04-23T01:22:18;99856.72;;;8.60;84.81
71145;BME280;58812;47.698;17.726;2023-04-23T01:24:44;99860.38;;;8.59;85.00
71145;BME280;58812;47.698;17.726;2023-04-23T01:27:09;99859.13;;;8.63;84.17
71145;BME280;58812;47.698;17.726;2023-04-23T01:29:37;99857.69;;;8.68;84.43
71145;BME280;58812;47.698;17.726;2023-04-23T01:32:03;99861.06;;;8.70;84.71
71145;BME280;58812;47.698;17.726;2023-04-23T01:34:29;99855.03;;;8.68;84.05
71145;BME280;58812;47.698;17.726;2023-04-23T01:36:56;99850.25;;;8.72;83.65
71145;BME280;58812;47.698;17.726;2023-04-23T01:39:22;99857.13;;;8.74;83.04
71145;BME280;58812;47.698;17.726;2023-04-23T01:41:47;99855.03;;;8.78;82.61
71145;BME280;58812;47.698;17.726;2023-04-23T01:44:13;99851.19;;;8.80;82.51
71145;BME280;58812;47.698;17.726;2023-04-23T01:46:38;99853.28;;;8.87;81.26
71145;BME280;58812;47.698;17.726;2023-04-23T01:49:04;99851.72;;;8.94;80.67
71145;BME280;58812;47.698;17.726;2023-04-23T01:51:30;99847.94;;;8.96;79.89
71145;BME280;58812;47.698;17.726;2023-04-23T01:53:55;99844.50;;;9.04;79.48
71145;BME280;58812;47.698;17.726;2023-04-23T01:56:24;99849.53;;;9.07;79.17
71145;BME280;58812;47.698;17.726;2023-04-23T01:58:51;99849.28;;;9.10;78.93
71145;BME280;58812;47.698;17.726;2023-04-23T02:01:16;99844.75;;;9.10;79.45
71145;BME280;58812;47.698;17.726;2023-04-23T02:03:42;99836.59;;;9.12;78.68
71145;BME280;58812;47.698;17.726;2023-04-23T02:06:08;99847.28;;;9.12;78.63
71145;BME280;58812;47.698;17.726;2023-04-23T02:08:34;99851.78;;;9.12;78.34
71145;BME280;58812;47.698;17.726;2023-04-23T02:11:00;99841.25;;;9.10;78.27
71145;BME280;58812;47.698;17.726;2023-04-23T02:13:25;99841.94;;;9.12;78.24
71145;BME280;58812;47.698;17.726;2023-04-23T02:15:50;99839.97;;;9.14;77.99
71145;BME280;58812;47.698;17.726;2023-04-23T02:18:16;99836.75;;;9.10;78.23
71145;BME280;58812;47.698;17.726;2023-04-23T02:20:41;99839.03;;;9.05;78.76
71145;BME280;58812;47.698;17.726;2023-04-23T02:23:08;99845.78;;;9.00;79.75
71145;BME280;58812;47.698;17.726;2023-04-23T02:25:34;99836.25;;;8.97;79.85
71145;BME280;58812;47.698;17.726;2023-04-23T02:28:03;99835.69;;;8.94;80.34
71145;BME280;58812;47.698;17.726;2023-04-23T02:30:31;99831.13;;;8.76;81.80
71145;BME280;58812;47.698;17.726;2023-04-23T02:32:57;99842.69;;;8.67;82.35
71145;BME280;58812;47.698;17.726;2023-04-23T02:35:22;99837.62;;;8.64;82.04
71145;BME280;58812;47.698;17.726;2023-04-23T02:37:49;99846.91;;;8.60;82.34
71145;BME280;58812;47.698;17.726;2023-04-23T02:40:14;99843.84;;;8.55;82.35
71145;BME280;58812;47.698;17.726;2023-04-23T02:42:40;99839.63;;;8.52;82.91
71145;BME280;58812;47.698;17.726;2023-04-23T02:45:06;99841.03;;;8.47;82.85
71145;BME280;58812;47.698;17.726;2023-04-23T02:47:31;99841.31;;;8.44;82.67
71145;BME280;58812;47.698;17.726;2023-04-23T02:49:57;99836.97;;;8.43;83.25
71145;BME280;58812;47.698;17.726;2023-04-23T02:52:23;99843.13;;;8.34;83.56
71145;BME280;58812;47.698;17.726;2023-04-23T02:54:49;99832.03;;;8.28;84.54
71145;BME280;58812;47.698;17.726;2023-04-23T02:57:14;99829.69;;;8.25;84.44
71145;BME280;58812;47.698;17.726;2023-04-23T02:59:40;99830.25;;;8.19;84.97
71145;BME280;58812;47.698;17.726;2023-04-23T03:02:06;99829.00;;;8.14;85.44
71145;BME280;58812;47.698;17.726;2023-04-23T03:04:31;99823.66;;;8.04;86.07
71145;BME280;58812;47.698;17.726;2023-04-23T03:06:57;99816.91;;;8.00;85.76
71145;BME280;58812;47.698;17.726;2023-04-23T03:09:22;99824.78;;;7.92;86.46
71145;BME280;58812;47.698;17.726;2023-04-23T03:11:48;99821.97;;;7.93;85.98
71145;BME280;58812;47.698;17.726;2023-04-23T03:14:13;99817.47;;;7.94;86.42
71145;BME280;58812;47.698;17.726;2023-04-23T03:16:39;99821.13;;;7.93;86.48
71145;BME280;58812;47.698;17.726;2023-04-23T03:19:04;99818.06;;;7.78;87.86
71145;BME280;58812;47.698;17.726;2023-04-23T03:21:30;99821.25;;;7.62;89.16
71145;BME280;58812;47.698;17.726;2023-04-23T03:23:55;99820.69;;;7.59;88.88
71145;BME280;58812;47.698;17.726;2023-04-23T03:26:21;99818.87;;;7.59;88.08
71145;BME280;58812;47.698;17.726;2023-04-23T03:28:46;99821.94;;;7.55;88.09
71145;BME280;58812;47.698;17.726;2023-04-23T03:31:12;99827.69;;;7.50;88.84
71145;BME280;58812;47.698;17.726;2023-04-23T03:33:37;99828.53;;;7.50;88.24
71145;BME280;58812;47.698;17.726;2023-04-23T03:36:03;99829.81;;;7.56;88.08
71145;BME280;58812;47.698;17.726;2023-04-23T03:38:28;99827.81;;;7.58;88.86
71145;BME280;58812;47.698;17.726;2023-04-23T03:40:54;99832.91;;;7.61;88.54
71145;BME280;58812;47.698;17.726;2023-04-23T03:43:19;99830.09;;;7.63;88.07
71145;BME280;58812;47.698;17.726;2023-04-23T03:45:44;99825.59;;;7.63;88.65
71145;BME280;58812;47.698;17.726;2023-04-23T03:48:10;99829.25;;;7.62;88.55
71145;BME280;58812;47.698;17.726;2023-04-23T03:50:35;99829.94;;;7.55;88.86
71145;BME280;58812;47.698;17.726;2023-04-23T03:53:04;99832.91;;;7.61;88.65
71145;BME280;58812;47.698;17.726;2023-04-23T03:55:30;99835.16;;;7.66;88.84
71145;BME280;58812;47.698;17.726;2023-04-23T03:57:55;99831.22;;;7.70;89.30
71145;BME280;58812;47.698;17.726;2023-04-23T04:00:21;99831.50;;;7.76;88.85
71145;BME280;58812;47.698;17.726;2023-04-23T04:02:46;99834.03;;;7.88;88.29
71145;BME280;58812;47.698;17.726;2023-04-23T04:05:11;99830.38;;;7.98;88.07
71145;BME280;58812;47.698;17.726;2023-04-23T04:07:37;99839.38;;;8.07;87.37
71145;BME280;58812;47.698;17.726;2023-04-23T04:10:05;99828.56;;;8.18;87.64
71145;BME280;58812;47.698;17.726;2023-04-23T04:12:30;99833.19;;;8.36;86.18
71145;BME280;58812;47.698;17.726;2023-04-23T04:14:56;99837.94;;;8.51;85.94
71145;BME280;58812;47.698;17.726;2023-04-23T04:17:21;99824.53;;;8.71;85.24
71145;BME280;58812;47.698;17.726;2023-04-23T04:19:47;99837.53;;;8.93;84.06
71145;BME280;58812;47.698;17.726;2023-04-23T04:22:14;99832.06;;;9.22;83.71
71145;BME280;58812;47.698;17.726;2023-04-23T04:24:40;99830.06;;;9.24;82.28
71145;BME280;58812;47.698;17.726;2023-04-23T04:27:06;99831.91;;;9.51;81.66
71145;BME280;58812;47.698;17.726;2023-04-23T04:29:32;99837.03;;;9.80;80.60
71145;BME280;58812;47.698;17.726;2023-04-23T04:31:57;99841.09;;;10.02;80.21
71145;BME280;58812;47.698;17.726;2023-04-23T04:34:23;99833.06;;;10.20;79.38
71145;BME280;58812;47.698;17.726;2023-04-23T04:36:49;99838.94;;;10.41;78.17
71145;BME280;58812;47.698;17.726;2023-04-23T04:39:20;99849.19;;;10.72;76.68
71145;BME280;58812;47.698;17.726;2023-04-23T04:41:45;99847.72;;;11.04;75.97
71145;BME280;58812;47.698;17.726;2023-04-23T04:44:12;99848.09;;;11.17;75.13
71145;BME280;58812;47.698;17.726;2023-04-23T04:46:39;99847.47;;;11.31;74.44
71145;BME280;58812;47.698;17.726;2023-04-23T04:49:09;99851.97;;;11.22;75.17
71145;BME280;58812;47.698;17.726;2023-04-23T04:51:39;99850.09;;;11.15;73.12
71145;BME280;58812;47.698;17.726;2023-04-23T04:54:06;99853.47;;;11.25;74.49
71145;BME280;58812;47.698;17.726;2023-04-23T04:56:32;99849.94;;;11.67;74.83
71145;BME280;58812;47.698;17.726;2023-04-23T04:58:58;99852.75;;;12.16;72.95
71145;BME280;58812;47.698;17.726;2023-04-23T05:01:24;99855.59;;;12.63;70.44
71145;BME280;58812;47.698;17.726;2023-04-23T05:03:51;99854.03;;;12.93;67.83
71145;BME280;58812;47.698;17.726;2023-04-23T05:06:17;99855.47;;;13.28;65.47
71145;BME280;58812;47.698;17.726;2023-04-23T05:08:43;99854.56;;;13.36;64.77
71145;BME280;58812;47.698;17.726;2023-04-23T05:11:13;99856.25;;;13.68;63.29
71145;BME280;58812;47.698;17.726;2023-04-23T05:13:39;99860.19;;;13.88;61.50
71145;BME280;58812;47.698;17.726;2023-04-23T05:16:05;99864.94;;;13.78;60.87
71145;BME280;58812;47.698;17.726;2023-04-23T05:18:30;99857.06;;;14.23;58.97
71145;BME280;58812;47.698;17.726;2023-04-23T05:20:56;99868.22;;;14.20;57.34
71145;BME280;58812;47.698;17.726;2023-04-23T05:23:21;99869.06;;;14.81;57.43
71145;BME280;58812;47.698;17.726;2023-04-23T05:25:47;99863.31;;;14.23;59.12
71145;BME280;58812;47.698;17.726;2023-04-23T05:28:12;99869.28;;;14.10;59.79
71145;BME280;58812;47.698;17.726;2023-04-23T05:30:39;99858.41;;;14.50;58.51
71145;BME280;58812;47.698;17.726;2023-04-23T05:33:04;99871.53;;;13.99;60.31
71145;BME280;58812;47.698;17.726;2023-04-23T05:35:30;99859.13;;;13.67;60.00
71145;BME280;58812;47.698;17.726;2023-04-23T05:37:56;99860.00;;;13.90;60.17
71145;BME280;58812;47.698;17.726;2023-04-23T05:40:21;99865.13;;;14.54;58.72
71145;BME280;58812;47.698;17.726;2023-04-23T05:42:47;99863.22;;;14.92;57.20
71145;BME280;58812;47.698;17.726;2023-04-23T05:45:12;99872.69;;;15.17;56.39
71145;BME280;58812;47.698;17.726;2023-04-23T05:47:38;99870.53;;;15.57;55.70
71145;BME280;58812;47.698;17.726;2023-04-23T05:50:04;99871.69;;;15.99;54.58
71145;BME280;58812;47.698;17.726;2023-04-23T05:52:30;99871.81;;;15.91;54.28
71145;BME280;58812;47.698;17.726;2023-04-23T05:54:57;99869.25;;;16.47;53.32
71145;BME280;58812;47.698;17.726;2023-04-23T05:57:23;99879.81;;;16.20;53.78
71145;BME280;58812;47.698;17.726;2023-04-23T05:59:48;99878.59;;;16.44;54.02
71145;BME280;58812;47.698;17.726;2023-04-23T06:02:13;99874.41;;;16.20;54.39
71145;BME280;58812;47.698;17.726;2023-04-23T06:04:39;99877.25;;;16.83;53.23
71145;BME280;58812;47.698;17.726;2023-04-23T06:07:05;99878.37;;;16.03;55.34
71145;BME280;58812;47.698;17.726;2023-04-23T06:09:31;99882.13;;;16.45;54.87
71145;BME280;58812;47.698;17.726;2023-04-23T06:11:56;99876.31;;;15.84;56.25
71145;BME280;58812;47.698;17.726;2023-04-23T06:14:22;99884.53;;;16.82;54.54
71145;BME280;58812;47.698;17.726;2023-04-23T06:16:47;99883.69;;;16.82;54.58
71145;BME280;58812;47.698;17.726;2023-04-23T06:19:13;99884.31;;;17.12;52.76
71145;BME280;58812;47.698;17.726;2023-04-23T06:21:39;99888.13;;;16.90;51.45
71145;BME280;58812;47.698;17.726;2023-04-23T06:24:05;99887.34;;;17.30;53.69
71145;BME280;58812;47.698;17.726;2023-04-23T06:26:32;99891.84;;;16.39;54.74
71145;BME280;58812;47.698;17.726;2023-04-23T06:28:57;99888.31;;;17.51;52.01
71145;BME280;58812;47.698;17.726;2023-04-23T06:31:26;99889.00;;;17.66;52.24
71145;BME280;58812;47.698;17.726;2023-04-23T06:33:52;99894.19;;;17.61;52.66
71145;BME280;58812;47.698;17.726;2023-04-23T06:36:17;99890.59;;;18.02;50.28
71145;BME280;58812;47.698;17.726;2023-04-23T06:38:42;99887.88;;;17.54;51.21
71145;BME280;58812;47.698;17.726;2023-04-23T06:41:10;99894.34;;;17.94;51.58
71145;BME280;58812;47.698;17.726;2023-04-23T06:43:35;99889.03;;;18.34;50.35
71145;BME280;58812;47.698;17.726;2023-04-23T06:46:00;99889.78;;;18.08;51.45
71145;BME280;58812;47.698;17.726;2023-04-23T06:48:26;99890.12;;;18.86;49.61
71145;BME280;58812;47.698;17.726;2023-04-23T06:50:51;99891.94;;;19.18;49.12
71145;BME280;58812;47.698;17.726;2023-04-23T06:53:17;99886.06;;;19.35;47.02
71145;BME280;58812;47.698;17.726;2023-04-23T06:55:42;99888.66;;;18.70;48.05
71145;BME280;58812;47.698;17.726;2023-04-23T06:58:08;99887.37;;;18.53;47.96
71145;BME280;58812;47.698;17.726;2023-04-23T07:00:34;99886.53;;;18.59;48.87
71145;BME280;58812;47.698;17.726;2023-04-23T07:02:59;99893.22;;;19.03;48.36
71145;BME280;58812;47.698;17.726;2023-04-23T07:05:25;99888.69;;;19.68;47.45
71145;BME280;58812;47.698;17.726;2023-04-23T07:07:50;99891.12;;;19.89;46.13
71145;BME280;58812;47.698;17.726;2023-04-23T07:10:17;99891.84;;;20.48;45.09
71145;BME280;58812;47.698;17.726;2023-04-23T07:12:42;99882.69;;;19.59;47.67
71145;BME280;58812;47.698;17.726;2023-04-23T07:15:08;99886.00;;;19.55;47.01
71145;BME280;58812;47.698;17.726;2023-04-23T07:17:34;99886.37;;;19.78;47.62
71145;BME280;58812;47.698;17.726;2023-04-23T07:20:00;99887.41;;;20.22;43.93
71145;BME280;58812;47.698;17.726;2023-04-23T07:22:29;99888.38;;;20.66;41.83
71145;BME280;58812;47.698;17.726;2023-04-23T07:24:54;99889.56;;;20.07;43.12
71145;BME280;58812;47.698;17.726;2023-04-23T07:27:20;99885.81;;;20.08;43.28
71145;BME280;58812;47.698;17.726;2023-04-23T07:29:45;99880.63;;;19.41;41.66
71145;BME280;58812;47.698;17.726;2023-04-23T07:32:10;99883.50;;;19.66;42.44
71145;BME280;58812;47.698;17.726;2023-04-23T07:34:36;99885.59;;;19.64;42.23
71145;BME280;58812;47.698;17.726;2023-04-23T07:37:02;99873.28;;;19.48;44.36
71145;BME280;58812;47.698;17.726;2023-04-23T07:39:27;99884.41;;;19.34;44.76
71145;BME280;58812;47.698;17.726;2023-04-23T07:41:53;99889.00;;;19.33;42.91
71145;BME280;58812;47.698;17.726;2023-04-23T07:44:18;99888.56;;;19.36;42.06
71145;BME280;58812;47.698;17.726;2023-04-23T07:46:44;99883.94;;;19.43;41.51
71145;BME280;58812;47.698;17.726;2023-04-23T07:49:09;99884.66;;;19.19;41.88
71145;BME280;58812;47.698;17.726;2023-04-23T07:51:35;99884.09;;;19.75;42.43
71145;BME280;58812;47.698;17.726;2023-04-23T07:54:00;99890.28;;;20.27;42.87
71145;BME280;58812;47.698;17.726;2023-04-23T07:56:26;99887.78;;;20.64;43.13
71145;BME280;58812;47.698;17.726;2023-04-23T07:58:51;99886.75;;;20.83;41.91
71145;BME280;58812;47.698;17.726;2023-04-23T08:01:18;99889.53;;;20.45;43.73
71145;BME280;58812;47.698;17.726;2023-04-23T08:03:44;99887.09;;;20.05;39.45
71145;BME280;58812;47.698;17.726;2023-04-23T08:06:10;99884.41;;;20.30;35.95
71145;BME280;58812;47.698;17.726;2023-04-23T08:08:36;99887.25;;;20.48;34.84
71145;BME280;58812;47.698;17.726;2023-04-23T08:11:02;99887.03;;;20.75;35.14
71145;BME280;58812;47.698;17.726;2023-04-23T08:13:28;99889.19;;;20.66;34.67
71145;BME280;58812;47.698;17.726;2023-04-23T08:15:53;99884.03;;;21.26;33.62
71145;BME280;58812;47.698;17.726;2023-04-23T08:18:19;99886.34;;;21.04;34.01
71145;BME280;58812;47.698;17.726;2023-04-23T08:20:44;99884.28;;;20.50;34.02
71145;BME280;58812;47.698;17.726;2023-04-23T08:23:10;99878.84;;;20.50;33.95
71145;BME280;58812;47.698;17.726;2023-04-23T08:25:35;99883.81;;;20.60;34.39
71145;BME280;58812;47.698;17.726;2023-04-23T08:28:01;99880.50;;;20.83;34.80
71145;BME280;58812;47.698;17.726;2023-04-23T08:30:27;99884.69;;;21.03;34.12
71145;BME280;58812;47.698;17.726;2023-04-23T08:32:53;99879.16;;;21.10;32.60
71145;BME280;58812;47.698;17.726;2023-04-23T08:35:18;99878.03;;;21.43;33.35
71145;BME280;58812;47.698;17.726;2023-04-23T08:37:45;99877.63;;;21.39;31.94
71145;BME280;58812;47.698;17.726;2023-04-23T08:40:11;99871.81;;;22.02;32.14
71145;BME280;58812;47.698;17.726;2023-04-23T08:43:00;99872.94;;;22.43;32.18
71145;BME280;58812;47.698;17.726;2023-04-23T08:45:23;99871.91;;;22.67;32.28
71145;BME280;58812;47.698;17.726;2023-04-23T08:47:50;99870.13;;;21.34;32.16
71145;BME280;58812;47.698;17.726;2023-04-23T08:50:17;99872.78;;;21.23;33.26
71145;BME280;58812;47.698;17.726;2023-04-23T08:52:49;99866.19;;;21.12;33.16
71145;BME280;58812;47.698;17.726;2023-04-23T08:55:16;99867.16;;;20.99;32.26
71145;BME280;58812;47.698;17.726;2023-04-23T08:57:44;99874.31;;;21.37;32.74
71145;BME280;58812;47.698;17.726;2023-04-23T09:00:11;99870.16;;;22.73;31.66
71145;BME280;58812;47.698;17.726;2023-04-23T09:02:40;99863.06;;;23.07;31.24
71145;BME280;58812;47.698;17.726;2023-04-23T09:05:06;99868.28;;;22.97;31.13
71145;BME280;58812;47.698;17.726;2023-04-23T09:07:33;99868.62;;;23.88;28.22
71145;BME280;58812;47.698;17.726;2023-04-23T09:09:59;99869.34;;;24.40;27.42
71145;BME280;58812;47.698;17.726;2023-04-23T09:12:25;99863.16;;;23.12;28.84
71145;BME280;58812;47.698;17.726;2023-04-23T09:14:51;99863.84;;;22.61;28.89
71145;BME280;58812;47.698;17.726;2023-04-23T09:17:17;99862.19;;;22.60;29.29
71145;BME280;58812;47.698;17.726;2023-04-23T09:19:44;99852.44;;;22.52;29.51
71145;BME280;58812;47.698;17.726;2023-04-23T09:22:10;99846.44;;;22.20;28.90
71145;BME280;58812;47.698;17.726;2023-04-23T09:24:36;99856.97;;;22.70;28.09
71145;BME280;58812;47.698;17.726;2023-04-23T09:27:01;99857.22;;;22.80;30.08
71145;BME280;58812;47.698;17.726;2023-04-23T09:29:29;99844.84;;;23.48;27.10
71145;BME280;58812;47.698;17.726;2023-04-23T09:32:06;99844.47;;;22.39;30.91
71145;BME280;58812;47.698;17.726;2023-04-23T09:34:34;99840.25;;;22.66;30.10
71145;BME280;58812;47.698;17.726;2023-04-23T09:37:04;99848.50;;;23.42;28.72
71145;BME280;58812;47.698;17.726;2023-04-23T09:39:32;99841.22;;;23.07;29.29
71145;BME280;58812;47.698;17.726;2023-04-23T09:42:03;99844.78;;;22.96;28.98
71145;BME280;58812;47.698;17.726;2023-04-23T09:44:33;99839.13;;;24.18;27.96
71145;BME280;58812;47.698;17.726;2023-04-23T09:47:08;99845.22;;;24.54;26.68
71145;BME280;58812;47.698;17.726;2023-04-23T09:49:47;99841.41;;;23.41;27.84
71145;BME280;58812;47.698;17.726;2023-04-23T09:52:13;99840.06;;;23.55;28.04
71145;BME280;58812;47.698;17.726;2023-04-23T09:54:39;99826.16;;;22.93;28.77
71145;BME280;58812;47.698;17.726;2023-04-23T09:57:04;99833.91;;;24.17;26.40
71145;BME280;58812;47.698;17.726;2023-04-23T09:59:34;99836.38;;;24.02;27.60
71145;BME280;58812;47.698;17.726;2023-04-23T10:02:04;99828.69;;;24.15;26.39
71145;BME280;58812;47.698;17.726;2023-04-23T10:04:30;99838.75;;;24.77;26.74
71145;BME280;58812;47.698;17.726;2023-04-23T10:07:00;99826.50;;;24.80;25.24
71145;BME280;58812;47.698;17.726;2023-04-23T10:09:27;99821.81;;;24.97;25.42
71145;BME280;58812;47.698;17.726;2023-04-23T10:14:21;99808.16;;;24.46;26.73
71145;BME280;58812;47.698;17.726;2023-04-23T10:16:50;99818.06;;;25.86;25.07
71145;BME280;58812;47.698;17.726;2023-04-23T10:19:18;99824.31;;;25.15;26.81
71145;BME280;58812;47.698;17.726;2023-04-23T10:21:49;99816.88;;;23.98;26.48
71145;BME280;58812;47.698;17.726;2023-04-23T10:24:18;99816.31;;;23.96;27.30
71145;BME280;58812;47.698;17.726;2023-04-23T10:26:46;99799.97;;;25.02;26.04
71145;BME280;58812;47.698;17.726;2023-04-23T10:29:13;99806.50;;;24.62;26.90
71145;BME280;58812;47.698;17.726;2023-04-23T10:31:41;99809.25;;;24.00;26.98
71145;BME280;58812;47.698;17.726;2023-04-23T10:34:09;99804.44;;;23.90;26.78
71145;BME280;58812;47.698;17.726;2023-04-23T10:36:36;99806.94;;;24.37;26.39
71145;BME280;58812;47.698;17.726;2023-04-23T10:39:01;99799.00;;;25.30;25.88
71145;BME280;58812;47.698;17.726;2023-04-23T10:41:40;99798.47;;;25.55;25.75
71145;BME280;58812;47.698;17.726;2023-04-23T10:44:10;99794.31;;;24.19;27.33
71145;BME280;58812;47.698;17.726;2023-04-23T10:46:36;99785.34;;;24.74;26.34
71145;BME280;58812;47.698;17.726;2023-04-23T10:49:10;99791.72;;;25.84;24.94
71145;BME280;58812;47.698;17.726;2023-04-23T10:51:39;99790.03;;;25.35;24.27
71145;BME280;58812;47.698;17.726;2023-04-23T10:54:07;99796.66;;;24.61;26.53
71145;BME280;58812;47.698;17.726;2023-04-23T10:56:40;99788.97;;;25.84;25.41
71145;BME280;58812;47.698;17.726;2023-04-23T10:59:19;99793.19;;;24.49;27.17
71145;BME280;58812;47.698;17.726;2023-04-23T11:01:56;99791.75;;;25.02;26.84
71145;BME280;58812;47.698;17.726;2023-04-23T11:04:28;99788.97;;;24.30;26.82
71145;BME280;58812;47.698;17.726;2023-04-23T11:06:55;99784.47;;;23.90;27.21
71145;BME280;58812;47.698;17.726;2023-04-23T11:11:54;99781.63;;;25.41;24.73
71145;BME280;58812;47.698;17.726;2023-04-23T11:14:32;99791.09;;;24.95;26.63
71145;BME280;58812;47.698;17.726;2023-04-23T11:16:59;99781.06;;;24.45;26.68
71145;BME280;58812;47.698;17.726;2023-04-23T11:19:24;99783.88;;;25.71;25.39
71145;BME280;58812;47.698;17.726;2023-04-23T11:22:00;99782.28;;;26.29;24.54
71145;BME280;58812;47.698;17.726;2023-04-23T11:26:52;99778.59;;;25.87;25.21
71145;BME280;58812;47.698;17.726;2023-04-23T11:29:22;99775.94;;;25.97;24.27
71145;BME280;58812;47.698;17.726;2023-04-23T11:31:51;99777.22;;;26.48;24.20
71145;BME280;58812;47.698;17.726;2023-04-23T11:34:17;99775.91;;;26.51;23.52
71145;BME280;58812;47.698;17.726;2023-04-23T11:36:43;99774.13;;;25.58;25.62
71145;BME280;58812;47.698;17.726;2023-04-23T11:39:08;99779.94;;;25.18;25.73
71145;BME280;58812;47.698;17.726;2023-04-23T11:41:35;99770.00;;;25.78;24.90
71145;BME280;58812;47.698;17.726;2023-04-23T11:44:00;99767.72;;;25.48;25.48
71145;BME280;58812;47.698;17.726;2023-04-23T11:46:26;99769.41;;;26.03;24.73
71145;BME280;58812;47.698;17.726;2023-04-23T11:48:51;99767.47;;;25.98;24.59
71145;BME280;58812;47.698;17.726;2023-04-23T11:51:17;99755.91;;;25.47;25.77
71145;BME280;58812;47.698;17.726;2023-04-23T11:53:46;99758.81;;;24.75;27.20
71145;BME280;58812;47.698;17.726;2023-04-23T11:56:15;99747.38;;;24.61;27.18
71145;BME280;58812;47.698;17.726;2023-04-23T11:58:40;99754.31;;;24.86;26.78
71145;BME280;58812;47.698;17.726;2023-04-23T12:01:06;99749.66;;;26.01;25.96
71145;BME280;58812;47.698;17.726;2023-04-23T12:03:32;99756.25;;;26.37;25.35
71145;BME280;58812;47.698;17.726;2023-04-23T12:05:58;99748.03;;;26.37;25.14
71145;BME280;58812;47.698;17.726;2023-04-23T12:08:24;99747.84;;;25.36;26.24
71145;BME280;58812;47.698;17.726;2023-04-23T12:10:54;99753.94;;;24.99;27.05
71145;BME280;58812;47.698;17.726;2023-04-23T12:13:28;99740.75;;;24.57;27.15
71145;BME280;58812;47.698;17.726;2023-04-23T12:15:57;99743.72;;;24.05;28.49
71145;BME280;58812;47.698;17.726;2023-04-23T12:18:30;99736.22;;;24.85;26.93
71145;BME280;58812;47.698;17.726;2023-04-23T12:21:12;99735.56;;;24.39;27.93
71145;BME280;58812;47.698;17.726;2023-04-23T12:23:40;99738.00;;;24.23;28.14
71145;BME280;58812;47.698;17.726;2023-04-23T12:26:13;99731.69;;;24.73;28.08
71145;BME280;58812;47.698;17.726;2023-04-23T12:28:53;99728.81;;;24.46;28.06
71145;BME280;58812;47.698;17.726;2023-04-23T12:31:26;99734.09;;;24.53;29.18
71145;BME280;58812;47.698;17.726;2023-04-23T12:33:56;99727.75;;;25.52;26.96
71145;BME280;58812;47.698;17.726;2023-04-23T12:36:26;99724.47;;;25.28;26.21
71145;BME280;58812;47.698;17.726;2023-04-23T12:38:52;99712.91;;;25.48;26.09
71145;BME280;58812;47.698;17.726;2023-04-23T12:41:18;99715.56;;;25.16;27.57
71145;BME280;58812;47.698;17.726;2023-04-23T12:43:43;99713.25;;;24.13;27.63
71145;BME280;58812;47.698;17.726;2023-04-23T12:46:13;99714.59;;;25.05;27.20
71145;BME280;58812;47.698;17.726;2023-04-23T12:48:38;99701.78;;;24.50;27.30
71145;BME280;58812;47.698;17.726;2023-04-23T12:51:04;99709.72;;;25.61;26.37
71145;BME280;58812;47.698;17.726;2023-04-23T12:53:30;99701.75;;;25.81;25.62
71145;BME280;58812;47.698;17.726;2023-04-23T12:55:56;99709.88;;;25.49;26.66
71145;BME280;58812;47.698;17.726;2023-04-23T12:58:21;99699.13;;;25.43;27.49